Holstein, Nebraska
Current Conditions -  °F | °C
As of 3:53 PM on Sunday 21 Dec 2014 (Local Time) from KHSI Reporting Station
Overcast Overcast  
Wind Chill: 33°   Ceiling: 800
Heat Index: 41°   Visibility: 8mi
Dew Point: 37°   Wind: 14mph
Humidity: 86%   Direction: 190°S
Pressure: 29.62"   Gusts: 23mph
Location:  40.47°N, 98.65°W
Report Text: KHSI 212153Z AUTO 19012G20KT 8SM OVC008 05/03 A2962 RMK AO2 SLP041 T00500028
Loading
Personal Weather Stations






























Interactive Weather Map New forecast layout! Learn more

10-Day Weather Forecast

Advertisements
Track Severe Weather on mobile